createdAt,value
2022-09-14T00:00:14.816Z,-20465.13
2022-09-14T00:02:42.686Z,-20466.81
2022-09-14T00:05:12.143Z,-20467.72
2022-09-14T00:07:39.913Z,-20465.28
2022-09-14T00:10:08.538Z,-20463.00
2022-09-14T00:12:36.718Z,-20462.25
2022-09-14T00:15:07.671Z,-20463.16
2022-09-14T00:17:35.986Z,-20464.97
2022-09-14T00:20:03.986Z,-20465.91
2022-09-14T00:22:35.942Z,-20466.06
2022-09-14T00:25:04.141Z,-20467.41
2022-09-14T00:27:31.832Z,-20469.53
2022-09-14T00:29:59.644Z,-20470.75
2022-09-14T00:32:27.434Z,-20468.34
2022-09-14T00:34:55.179Z,-20468.03
2022-09-14T00:37:23.024Z,-20465.91
2022-09-14T00:39:52.252Z,-20464.06
2022-09-14T00:42:22.355Z,-20463.16
2022-09-14T00:45:08.215Z,-20463.31
2022-09-14T00:47:36.701Z,-20465.44
2022-09-14T00:50:08.883Z,-20462.72
2022-09-14T00:52:40.372Z,-20462.84
2022-09-14T00:55:13.312Z,-20459.19
2022-09-14T00:57:46.452Z,-20463.75
2022-09-14T01:00:20.978Z,-20465.13
2022-09-14T01:02:51.567Z,-20466.19
2022-09-14T01:05:29.927Z,-20463.31
2022-09-14T01:08:19.498Z,-20464.69
2022-09-14T01:11:23.703Z,-20467.13
2022-09-14T01:14:00.851Z,-20464.84
2022-09-14T01:16:35.992Z,-20464.69
2022-09-14T01:19:09.684Z,-20463.91
2022-09-14T01:21:42.045Z,-20465.91
2022-09-14T01:24:22.074Z,-20465.28
2022-09-14T01:27:21.178Z,-20466.19
2022-09-14T01:29:55.397Z,-20466.66
2022-09-14T01:32:28.628Z,-20465.59
2022-09-14T01:35:04.661Z,-20464.06
2022-09-14T01:37:36.276Z,-20464.69
2022-09-14T01:40:11.512Z,-20464.69
2022-09-14T01:42:44.068Z,-20465.44
2022-09-14T01:45:16.713Z,-20466.19
2022-09-14T01:47:49.151Z,-20469.53
2022-09-14T01:50:23.820Z,-20470.47
2022-09-14T01:52:58.666Z,-20470.31
2022-09-14T01:55:45.829Z,-20474.56
2022-09-14T01:58:21.438Z,-20473.81
2022-09-14T02:00:51.614Z,-20469.84
2022-09-14T02:03:25.347Z,-20467.41
2022-09-14T02:06:07.696Z,-20466.66
2022-09-14T02:08:36.444Z,-20465.75
2022-09-14T02:11:39.444Z,-20464.84
2022-09-14T02:14:08.936Z,-20468.63
2022-09-14T02:16:37.397Z,-20465.91
2022-09-14T02:19:06.607Z,-20469.69
2022-09-14T02:24:50.330Z,-20471.38
2022-09-14T02:28:13.122Z,-20472.28
2022-09-14T02:31:11.878Z,-20473.50
2022-09-14T02:41:27.593Z,-20474.88
2022-09-14T02:44:25.832Z,-20475.94
2022-09-14T02:47:15.568Z,-20474.72
2022-09-14T02:49:52.608Z,-20472.28
2022-09-14T02:52:29.399Z,-20472.44
2022-09-14T02:55:15.815Z,-20471.38
2022-09-14T02:58:08.840Z,-20477.91
2022-09-14T03:00:38.788Z,-20476.22
2022-09-14T03:03:15.200Z,-20477.75
2022-09-14T03:05:43.302Z,-20477.75
2022-09-14T03:08:12.510Z,-20476.53
2022-09-14T03:10:51.963Z,-20479.56
2022-09-14T03:13:20.328Z,-20477.31
2022-09-14T03:15:51.577Z,-20478.97
2022-09-14T03:18:33.912Z,-20476.53
2022-09-14T03:21:07.076Z,-20478.81
2022-09-14T03:23:58.093Z,-20478.22
2022-09-14T03:26:29.018Z,-20480.19
2022-09-14T03:29:12.470Z,-20481.25
2022-09-14T03:32:15.691Z,-20481.41
2022-09-14T03:34:44.793Z,-20482.91
2022-09-14T03:37:12.732Z,-20482.31
2022-09-14T03:39:40.560Z,-20480.94
2022-09-14T03:42:08.496Z,-20479.56
2022-09-14T03:44:36.267Z,-20477.75
2022-09-14T03:47:04.149Z,-20476.84
2022-09-14T03:49:31.886Z,-20478.81
2022-09-14T03:52:12.322Z,-20478.06
2022-09-14T03:54:58.765Z,-20477.75
2022-09-14T03:57:27.058Z,-20478.66
2022-09-14T03:59:57.255Z,-20479.88
2022-09-14T04:02:30.161Z,-20477.44
2022-09-14T04:04:58.331Z,-20478.66
2022-09-14T04:07:27.998Z,-20478.97
2022-09-14T04:10:17.714Z,-20475.31
2022-09-14T04:14:18.116Z,-20473.97
2022-09-14T04:22:37.461Z,-20481.41
2022-09-14T04:29:38.660Z,-20482.00
2022-09-14T04:37:27.392Z,-20481.41
2022-09-14T04:40:56.314Z,-20479.88
2022-09-14T04:43:43.140Z,-20481.41
2022-09-14T04:46:15.472Z,-20483.22
2022-09-14T04:48:46.355Z,-20476.69
2022-09-14T04:52:00.761Z,-20476.09
2022-09-14T04:54:28.643Z,-20475.03
2022-09-14T04:57:03.256Z,-20475.31
2022-09-14T04:59:34.428Z,-20477.91
2022-09-14T05:02:14.782Z,-20477.91
2022-09-14T05:04:42.549Z,-20480.50
2022-09-14T05:07:12.828Z,-20480.19
2022-09-14T05:09:40.511Z,-20478.97
2022-09-14T05:12:08.806Z,-20479.28
2022-09-14T05:14:36.602Z,-20479.28
2022-09-14T05:17:25.425Z,-20479.44
2022-09-14T05:19:53.188Z,-20480.50
2022-09-14T05:22:22.765Z,-20482.00
2022-09-14T05:24:51.857Z,-20479.72
2022-09-14T05:27:26.522Z,-20476.09
2022-09-14T05:30:23.585Z,-20479.56
2022-09-14T05:32:59.639Z,-20479.13
2022-09-14T05:35:27.764Z,-20478.81
2022-09-14T05:38:15.372Z,-20478.66
2022-09-14T05:40:43.482Z,-20480.19
2022-09-14T05:43:11.517Z,-20480.78
2022-09-14T05:45:49.328Z,-20478.66
2022-09-14T05:48:34.589Z,-20482.00
2022-09-14T05:54:49.180Z,-20482.00
2022-09-14T05:57:23.877Z,-20482.31
2022-09-14T06:04:25.535Z,-20481.09
2022-09-14T06:08:15.787Z,-20478.66
2022-09-14T06:27:52.343Z,-20484.00
2022-09-14T06:31:25.181Z,-20485.06
2022-09-14T06:34:41.661Z,-20486.88
2022-09-14T06:37:09.620Z,-20492.03
2022-09-14T06:40:00.363Z,-20494.47
2022-09-14T06:42:30.844Z,-20497.66
2022-09-14T06:48:35.203Z,-20500.84
2022-09-14T06:54:13.861Z,-20503.28
2022-09-14T06:57:17.470Z,-20506.03
2022-09-14T06:59:45.440Z,-20509.22
2022-09-14T07:02:37.367Z,-20509.22
2022-09-14T07:05:21.478Z,-20509.38
2022-09-14T07:08:52.150Z,-20510.28
2022-09-14T07:12:36.019Z,-20507.84
2022-09-14T07:22:15.762Z,-20511.78
2022-09-14T07:24:52.652Z,-20519.38
2022-09-14T07:27:20.325Z,-20523.34
2022-09-14T07:29:48.580Z,-20525.63
2022-09-14T07:32:19.760Z,-20527.88
2022-09-14T07:34:50.079Z,-20530.31
2022-09-14T07:37:18.185Z,-20529.09
2022-09-14T07:40:04.577Z,-20532.44
2022-09-14T07:42:32.593Z,-20533.81
2022-09-14T07:45:04.388Z,-20543.69
2022-09-14T07:47:32.462Z,-20550.06
2022-09-14T07:50:02.061Z,-20558.84
2022-09-14T07:52:45.367Z,-20566.13
2022-09-14T07:55:13.441Z,-20569.47
2022-09-14T07:57:59.433Z,-20576.00
2022-09-14T08:00:27.407Z,-20570.69
2022-09-14T08:03:11.796Z,-20568.56
2022-09-14T08:05:45.857Z,-20565.06
2022-09-14T08:08:13.572Z,-20555.34
2022-09-14T08:10:44.646Z,-20556.72
2022-09-14T08:14:07.920Z,-20554.31
2022-09-14T08:20:55.879Z,-20544.75
2022-09-14T08:24:03.877Z,-20540.63
2022-09-14T08:33:30.944Z,-20540.78
2022-09-14T08:36:37.464Z,-20541.56
2022-09-14T08:39:10.505Z,-20546.09
2022-09-14T08:41:42.744Z,-20547.94
2022-09-14T08:47:29.461Z,-20543.69
2022-09-14T08:54:02.271Z,-20550.34
2022-09-14T08:56:48.715Z,-20551.88
2022-09-14T09:00:23.614Z,-20557.34
2022-09-14T09:03:12.402Z,-20562.34
2022-09-14T09:06:07.600Z,-20558.53
2022-09-14T09:08:47.723Z,-20561.88
2022-09-14T09:12:04.899Z,-20563.84
2022-09-14T09:15:08.484Z,-20569.78
2022-09-14T09:18:00.340Z,-20569.94
2022-09-14T09:20:35.858Z,-20561.88
2022-09-14T09:23:32.478Z,-20567.03
2022-09-14T09:27:00.880Z,-20594.31
2022-09-14T09:33:30.014Z,-20619.63
2022-09-14T09:36:54.988Z,-20637.78
2022-09-14T09:44:04.285Z,-20673.31
2022-09-14T09:48:07.233Z,-20694.03
2022-09-14T10:32:53.626Z,-20688.88
2022-09-14T10:35:25.211Z,-20686.16
2022-09-14T10:38:04.584Z,-20690.84
2022-09-14T10:40:38.550Z,-20721.34
2022-09-14T10:43:15.332Z,-20725.13
2022-09-14T10:45:50.368Z,-20740.97
2022-09-14T10:48:44.491Z,-20759.06
2022-09-14T10:51:32.500Z,-20755.88
2022-09-14T10:54:05.702Z,-20764.19
2022-09-14T10:56:44.111Z,-20772.59
2022-09-14T10:59:27.062Z,-20793.25
2022-09-14T11:02:29.565Z,-20806.34
2022-09-14T11:05:08.477Z,-20796.72
2022-09-14T11:07:44.981Z,-20816.56
2022-09-14T11:10:21.419Z,-20799.56
2022-09-14T11:13:05.876Z,-20774.25
2022-09-14T11:15:41.107Z,-20772.31
2022-09-14T11:18:25.998Z,-20770.19
2022-09-14T11:21:04.683Z,-20764.63
2022-09-14T11:23:47.213Z,-20762.22
2022-09-14T11:26:19.704Z,-20751.81
2022-09-14T11:28:52.765Z,-20748.19
2022-09-14T11:31:24.436Z,-20732.81
2022-09-14T11:33:56.985Z,-20733.41
2022-09-14T11:36:29.073Z,-20733.72
2022-09-14T11:39:06.921Z,-20723.91
2022-09-14T11:41:40.324Z,-20707.16
2022-09-14T11:44:14.442Z,-20702.78
2022-09-14T11:46:47.976Z,-20710.63
2022-09-14T11:49:20.662Z,-20714.84
2022-09-14T11:51:53.020Z,-20715.47
2022-09-14T11:54:24.451Z,-20711.84
2022-09-14T11:56:56.274Z,-20696.44
2022-09-14T11:59:50.682Z,-20681.63
2022-09-14T12:02:49.090Z,-20688.13
2022-09-14T12:05:32.820Z,-20690.25
2022-09-14T12:08:03.493Z,-20697.78
2022-09-14T12:10:32.960Z,-20695.97
2022-09-14T12:13:22.918Z,-20687.81
2022-09-14T12:16:04.408Z,-20685.72
2022-09-14T12:18:33.165Z,-20692.06
2022-09-14T12:21:03.202Z,-20695.97
2022-09-14T12:23:42.763Z,-20685.09
2022-09-14T12:26:29.030Z,-20692.81
2022-09-14T12:29:02.214Z,-20695.38
2022-09-14T12:32:01.070Z,-20689.34
2022-09-14T12:34:31.928Z,-20694.78
2022-09-14T12:37:32.494Z,-20695.06
2022-09-14T12:40:35.375Z,-20688.13
2022-09-14T12:43:46.043Z,-20685.41
2022-09-14T12:46:34.211Z,-20680.56
2022-09-14T12:49:03.690Z,-20683.00
2022-09-14T12:51:45.740Z,-20684.19
2022-09-14T12:54:28.182Z,-20680.88
2022-09-14T12:57:19.940Z,-20678.31
2022-09-14T12:59:55.646Z,-20675.44
2022-09-14T13:02:55.384Z,-20671.34
2022-09-14T13:05:26.835Z,-20669.09
2022-09-14T13:07:56.018Z,-20669.69
2022-09-14T13:10:28.624Z,-20669.38
2022-09-14T13:12:57.245Z,-20666.22
2022-09-14T13:15:27.792Z,-20671.19
2022-09-14T13:18:04.207Z,-20666.06
2022-09-14T13:20:33.351Z,-20657.59
2022-09-14T13:23:01.768Z,-20649.44
2022-09-14T13:25:33.927Z,-20647.91
2022-09-14T13:28:04.011Z,-20640.97
2022-09-14T13:30:32.968Z,-20638.53
2022-09-14T13:33:02.687Z,-20641.25
2022-09-14T13:35:34.296Z,-20641.56
2022-09-14T13:38:08.657Z,-20635.50
2022-09-14T13:40:36.534Z,-20629.16
2022-09-14T13:43:04.351Z,-20627.19
2022-09-14T13:45:32.852Z,-20624.91
2022-09-14T13:48:02.345Z,-20625.22
2022-09-14T13:50:29.966Z,-20625.97
2022-09-14T13:53:02.457Z,-20627.50
2022-09-14T13:55:43.864Z,-20624.91
2022-09-14T13:58:22.332Z,-20626.13
2022-09-14T14:00:54.454Z,-20625.22
2022-09-14T14:03:30.724Z,-20624.31
2022-09-14T14:05:59.128Z,-20622.19
2022-09-14T14:08:32.177Z,-20619.63
2022-09-14T14:11:02.942Z,-20623.09
2022-09-14T14:13:32.694Z,-20623.09
2022-09-14T14:16:20.438Z,-20617.03
2022-09-14T14:18:54.407Z,-20613.09
2022-09-14T14:21:31.370Z,-20612.50
2022-09-14T14:24:26.542Z,-20612.50
2022-09-14T14:26:56.159Z,-20614.00
2022-09-14T14:29:23.893Z,-20609.78
2022-09-14T14:31:51.667Z,-20612.50
2022-09-14T14:34:23.551Z,-20608.25
2022-09-14T14:36:51.234Z,-20608.25
2022-09-14T14:39:20.203Z,-20606.13
2022-09-14T14:41:48.480Z,-20610.38
2022-09-14T14:44:19.327Z,-20606.00
2022-09-14T14:46:47.329Z,-20606.00
2022-09-14T14:49:17.057Z,-20602.06
2022-09-14T14:51:46.003Z,-20601.91
2022-09-14T14:54:16.696Z,-20601.00
2022-09-14T14:56:46.343Z,-20600.69
2022-09-14T14:59:25.288Z,-20593.13
2022-09-14T15:01:54.911Z,-20592.81
2022-09-14T15:04:22.549Z,-20597.06
2022-09-14T15:06:52.095Z,-20598.09
2022-09-14T15:09:21.566Z,-20593.72
2022-09-14T15:11:49.919Z,-20592.97
2022-09-14T15:14:21.330Z,-20592.50
2022-09-14T15:16:51.986Z,-20591.91
2022-09-14T15:19:19.574Z,-20595.09
2022-09-14T15:21:47.406Z,-20587.19
2022-09-14T15:24:16.445Z,-20590.84
2022-09-14T15:26:44.281Z,-20594.78
2022-09-14T15:29:13.545Z,-20593.41
2022-09-14T15:31:41.497Z,-20599.47
2022-09-14T15:34:09.051Z,-20601.00
2022-09-14T15:36:42.277Z,-20601.13
2022-09-14T15:39:13.192Z,-20592.06
2022-09-14T15:41:42.315Z,-20592.50
2022-09-14T15:44:11.534Z,-20588.41
2022-09-14T15:46:40.139Z,-20590.38
2022-09-14T15:49:09.373Z,-20589.16
2022-09-14T15:51:36.918Z,-20585.84
2022-09-14T15:54:05.226Z,-20584.94
2022-09-14T15:56:32.809Z,-20586.13
2022-09-14T15:59:03.222Z,-20588.72
2022-09-14T16:01:31.501Z,-20587.19
2022-09-14T16:03:59.518Z,-20591.00
2022-09-14T16:06:28.066Z,-20590.06
2022-09-14T16:08:56.107Z,-20587.50
2022-09-14T16:11:23.661Z,-20588.88
2022-09-14T16:13:52.226Z,-20592.81
2022-09-14T16:16:22.173Z,-20595.09
2022-09-14T16:18:50.718Z,-20596.44
2022-09-14T16:21:20.506Z,-20596.59
2022-09-14T16:23:50.881Z,-20600.09
2022-09-14T16:26:22.566Z,-20606.59
2022-09-14T16:28:51.675Z,-20608.88
2022-09-14T16:31:23.044Z,-20610.97
2022-09-14T16:33:52.547Z,-20613.72
2022-09-14T16:36:24.201Z,-20613.72
2022-09-14T16:38:51.791Z,-20612.66
2022-09-14T16:41:19.489Z,-20615.38
2022-09-14T16:43:47.010Z,-20616.28
2022-09-14T16:46:16.401Z,-20613.09
2022-09-14T16:48:47.131Z,-20609.31
2022-09-14T16:51:16.002Z,-20603.88
2022-09-14T16:53:45.524Z,-20602.66
2022-09-14T16:56:15.206Z,-20603.13
2022-09-14T16:58:43.619Z,-20602.06
2022-09-14T17:01:15.034Z,-20600.09
2022-09-14T17:03:43.473Z,-20601.00
2022-09-14T17:06:15.539Z,-20597.06
2022-09-14T17:08:44.381Z,-20594.94
2022-09-14T17:11:12.985Z,-20594.47
2022-09-14T17:13:42.728Z,-20592.06
2022-09-14T17:16:12.393Z,-20593.13
2022-09-14T17:18:41.906Z,-20589.47
2022-09-14T17:21:13.537Z,-20588.25
2022-09-14T17:23:41.795Z,-20587.03
2022-09-14T17:26:11.751Z,-20583.09
2022-09-14T17:28:40.256Z,-20581.00
2022-09-14T17:31:09.461Z,-20581.75
2022-09-14T17:33:37.150Z,-20581.00
2022-09-14T17:36:07.051Z,-20576.44
2022-09-14T17:38:37.651Z,-20576.13
2022-09-14T17:41:07.757Z,-20570.69
2022-09-14T17:43:36.512Z,-20571.59
2022-09-14T17:46:05.606Z,-20574.31
2022-09-14T17:48:35.055Z,-20573.88
2022-09-14T17:51:06.410Z,-20572.19
2022-09-14T17:53:39.392Z,-20572.81
2022-09-14T17:56:08.687Z,-20571.28
2022-09-14T17:58:37.536Z,-20568.09
2022-09-14T18:01:10.404Z,-20562.34
2022-09-14T18:03:39.379Z,-20561.13
2022-09-14T18:06:09.135Z,-20562.94
2022-09-14T18:08:38.484Z,-20559.91
2022-09-14T18:11:07.783Z,-20558.69
2022-09-14T18:13:35.376Z,-20556.28
2022-09-14T18:16:03.157Z,-20550.66
2022-09-14T18:18:30.970Z,-20540.63
2022-09-14T18:20:59.659Z,-20531.53
2022-09-14T18:23:27.863Z,-20523.03
2022-09-14T18:25:57.757Z,-20517.41
2022-09-14T18:28:25.667Z,-20516.81
2022-09-14T18:31:01.274Z,-20513.63
2022-09-14T18:33:29.244Z,-20510.28
2022-09-14T18:35:57.384Z,-20507.69
2022-09-14T18:38:25.969Z,-20505.88
2022-09-14T18:40:53.633Z,-20504.03
2022-09-14T18:43:22.609Z,-20501.63
2022-09-14T18:45:50.347Z,-20501.16
2022-09-14T18:48:17.994Z,-20502.06
2022-09-14T18:50:45.650Z,-20497.97
2022-09-14T18:53:13.800Z,-20495.53
2022-09-14T18:55:41.553Z,-20494.78
2022-09-14T18:58:09.469Z,-20495.69
2022-09-14T19:00:44.971Z,-20492.66
2022-09-14T19:03:13.584Z,-20491.44
2022-09-14T19:05:42.936Z,-20492.19
2022-09-14T19:08:13.480Z,-20491.44
2022-09-14T19:10:41.354Z,-20491.13
2022-09-14T19:13:09.047Z,-20490.81
2022-09-14T19:15:40.737Z,-20492.19
2022-09-14T19:18:09.447Z,-20489.31
2022-09-14T19:21:05.283Z,-20489.63
2022-09-14T19:23:28.891Z,-20490.22
2022-09-14T19:25:56.471Z,-20486.56
2022-09-14T19:28:24.014Z,-20487.03
2022-09-14T19:30:52.926Z,-20483.53
2022-09-14T19:33:20.550Z,-20479.56
2022-09-14T19:35:48.054Z,-20483.22
2022-09-14T19:38:15.621Z,-20482.91
2022-09-14T19:40:51.682Z,-20482.31
2022-09-14T19:43:19.458Z,-20482.47
2022-09-14T19:45:47.025Z,-20482.31
2022-09-14T19:48:16.266Z,-20482.78
2022-09-14T19:50:46.003Z,-20484.75
2022-09-14T19:53:13.830Z,-20484.13
2022-09-14T19:55:41.406Z,-20484.44
2022-09-14T19:58:09.063Z,-20484.75
2022-09-14T20:00:37.119Z,-20482.31
2022-09-14T20:03:04.926Z,-20485.50
2022-09-14T20:05:34.017Z,-20482.00
2022-09-14T20:08:01.687Z,-20480.50
2022-09-14T20:10:29.209Z,-20479.44
2022-09-14T20:12:56.763Z,-20478.81
2022-09-14T20:15:24.407Z,-20480.94
2022-09-14T20:17:55.266Z,-20479.28
2022-09-14T20:20:22.856Z,-20478.06
2022-09-14T20:22:51.935Z,-20481.25
2022-09-14T20:25:19.515Z,-20480.19
2022-09-14T20:27:47.780Z,-20480.19
2022-09-14T20:30:15.539Z,-20480.34
2022-09-14T20:32:43.089Z,-20480.19
2022-09-14T20:35:10.644Z,-20481.41
2022-09-14T20:37:38.221Z,-20479.44
2022-09-14T20:40:08.853Z,-20479.28
2022-09-14T20:42:36.562Z,-20477.75
2022-09-14T20:45:04.400Z,-20480.94
2022-09-14T20:47:31.962Z,-20478.66
2022-09-14T20:49:59.759Z,-20475.94
2022-09-14T20:52:27.310Z,-20475.47
2022-09-14T20:54:54.924Z,-20476.53
2022-09-14T20:57:24.189Z,-20474.09
2022-09-14T20:59:51.768Z,-20476.69
2022-09-14T21:02:19.567Z,-20475.94
2022-09-14T21:04:47.161Z,-20475.94
2022-09-14T21:07:14.738Z,-20475.94
2022-09-14T21:09:42.501Z,-20473.66
2022-09-14T21:12:14.101Z,-20472.28
2022-09-14T21:14:45.011Z,-20474.72
2022-09-14T21:17:12.939Z,-20474.09
2022-09-14T21:19:40.645Z,-20472.13
2022-09-14T21:22:08.422Z,-20474.41
2022-09-14T21:24:36.383Z,-20471.38
2022-09-14T21:27:04.864Z,-20475.94
2022-09-14T21:29:33.977Z,-20478.66
2022-09-14T21:32:08.235Z,-20478.66
2022-09-14T21:34:36.505Z,-20480.50
2022-09-14T21:37:04.053Z,-20477.75
2022-09-14T21:39:31.636Z,-20478.66
2022-09-14T21:42:00.559Z,-20481.56
2022-09-14T21:44:29.796Z,-20481.72
2022-09-14T21:46:57.437Z,-20481.72
2022-09-14T21:49:26.467Z,-20481.41
2022-09-14T21:51:54.238Z,-20478.81
2022-09-14T21:54:22.171Z,-20478.22
2022-09-14T21:56:49.905Z,-20479.72
2022-09-14T21:59:19.385Z,-20480.19
2022-09-14T22:01:47.914Z,-20479.72
2022-09-14T22:04:18.181Z,-20475.78
2022-09-14T22:06:47.334Z,-20477.44
2022-09-14T22:09:16.747Z,-20480.50
2022-09-14T22:11:44.982Z,-20483.84
2022-09-14T22:14:14.492Z,-20485.81
2022-09-14T22:16:42.738Z,-20485.97
2022-09-14T22:19:15.287Z,-20488.09
2022-09-14T22:21:43.178Z,-20489.63
2022-09-14T22:24:16.043Z,-20487.63
2022-09-14T22:26:44.388Z,-20482.78
2022-09-14T22:29:14.038Z,-20482.47
2022-09-14T22:31:43.902Z,-20480.50
2022-09-14T22:34:12.504Z,-20478.38
2022-09-14T22:36:41.092Z,-20477.75
2022-09-14T22:39:10.009Z,-20478.22
2022-09-14T22:41:39.433Z,-20478.06
2022-09-14T22:44:08.230Z,-20478.22
2022-09-14T22:46:36.893Z,-20478.66
2022-09-14T22:49:04.753Z,-20480.19
2022-09-14T22:51:32.524Z,-20480.19
2022-09-14T22:54:00.121Z,-20479.88
2022-09-14T22:56:29.709Z,-20480.19
2022-09-14T22:58:59.601Z,-20477.75
2022-09-14T23:01:30.954Z,-20479.56
2022-09-14T23:04:00.210Z,-20479.28
2022-09-14T23:06:29.100Z,-20480.78
2022-09-14T23:08:56.676Z,-20481.09
2022-09-14T23:11:24.231Z,-20481.56
2022-09-14T23:13:53.301Z,-20481.72
2022-09-14T23:16:26.262Z,-20483.53
2022-09-14T23:18:55.577Z,-20483.69
2022-09-14T23:21:23.335Z,-20483.53
2022-09-14T23:23:52.471Z,-20484.91
2022-09-14T23:26:20.653Z,-20482.47
2022-09-14T23:28:52.477Z,-20480.50
2022-09-14T23:31:20.075Z,-20484.28
2022-09-14T23:33:51.791Z,-20485.81
2022-09-14T23:36:22.014Z,-20483.38
2022-09-14T23:38:50.455Z,-20485.34
2022-09-14T23:41:19.174Z,-20484.59
2022-09-14T23:43:47.174Z,-20484.59
2022-09-14T23:46:15.647Z,-20483.84
2022-09-14T23:48:43.416Z,-20484.75
2022-09-14T23:51:13.586Z,-20482.31
2022-09-14T23:53:42.406Z,-20481.72
2022-09-14T23:56:09.969Z,-20478.97
2022-09-14T23:58:37.626Z,-20477.44
